Archival Weather

Teniente Col Carmelo Peralta

Teniente Col Carmelo Peralta, Paraguay (SGCO)

Report from: Wednesday, December 6, 2023 12:00 PM -03
Current time: Tuesday, April 23, 2024 4:35 AM -04

Current weather – Weather history – Daily summaries
Weather forecast

Temperature34.0°C (93.2°F)
Heat index40.6°C (105.1°F)
Dew point24.0°C (75.2°F)
Winds 12 kts (6.2 m/s, 13.8 mph) North-Northwest (330°)
Visibility6.2 mi. (10 km)
Clouds Scattered clouds 3,500 ft. (1,067 m)
Scattered clouds 7,000 ft. (2,134 m)
Altimeter29.80 in.Hg (1009 mB)
Relative humidity56 %
Density altitude2,701 ft. (823 m)
Flight conditions Visual Meteorological Conditions
Raw dataSGCO 061500Z 33012KT 9999 SCT035 SCT070 34/24 Q1009
An error has occurred. This application may no longer respond until reloaded. Reload 🗙